sensor_id;sensor_type;location;lat;lon;timestamp;P1;durP1;ratioP1;P2;durP2;ratioP2
64834;SDS011;51293;59.296;18.006;2023-02-10T00:00:42;2.17;;;0.32;;
64834;SDS011;51293;59.296;18.006;2023-02-10T00:03:08;1.33;;;0.20;;
64834;SDS011;51293;59.296;18.006;2023-02-10T00:05:33;0.20;;;0.20;;
64834;SDS011;51293;59.296;18.006;2023-02-10T00:07:58;0.80;;;0.17;;
64834;SDS011;51293;59.296;18.006;2023-02-10T00:10:24;2.92;;;0.20;;
64834;SDS011;51293;59.296;18.006;2023-02-10T00:12:49;0.63;;;0.38;;
64834;SDS011;51293;59.296;18.006;2023-02-10T00:15:14;0.52;;;0.22;;
64834;SDS011;51293;59.296;18.006;2023-02-10T00:17:40;0.20;;;0.20;;
64834;SDS011;51293;59.296;18.006;2023-02-10T00:20:05;0.20;;;0.20;;
64834;SDS011;51293;59.296;18.006;2023-02-10T00:22:32;0.65;;;0.30;;
64834;SDS011;51293;59.296;18.006;2023-02-10T00:24:58;1.27;;;0.40;;
64834;SDS011;51293;59.296;18.006;2023-02-10T00:27:23;0.98;;;0.30;;
64834;SDS011;51293;59.296;18.006;2023-02-10T00:29:49;0.40;;;0.20;;
64834;SDS011;51293;59.296;18.006;2023-02-10T00:32:15;0.32;;;0.20;;
64834;SDS011;51293;59.296;18.006;2023-02-10T00:34:42;1.00;;;0.28;;
64834;SDS011;51293;59.296;18.006;2023-02-10T00:37:08;0.32;;;0.20;;
64834;SDS011;51293;59.296;18.006;2023-02-10T00:39:33;0.30;;;0.20;;
64834;SDS011;51293;59.296;18.006;2023-02-10T00:41:59;0.30;;;0.30;;
64834;SDS011;51293;59.296;18.006;2023-02-10T00:44:24;1.38;;;0.32;;
64834;SDS011;51293;59.296;18.006;2023-02-10T00:46:50;3.22;;;0.40;;
64834;SDS011;51293;59.296;18.006;2023-02-10T00:49:15;1.27;;;0.30;;
64834;SDS011;51293;59.296;18.006;2023-02-10T00:51:40;1.48;;;0.30;;
64834;SDS011;51293;59.296;18.006;2023-02-10T00:54:06;0.65;;;0.30;;
64834;SDS011;51293;59.296;18.006;2023-02-10T00:56:32;1.10;;;0.22;;
64834;SDS011;51293;59.296;18.006;2023-02-10T00:58:57;3.33;;;0.30;;
64834;SDS011;51293;59.296;18.006;2023-02-10T01:01:22;1.23;;;0.28;;
64834;SDS011;51293;59.296;18.006;2023-02-10T01:03:48;0.55;;;0.30;;
64834;SDS011;51293;59.296;18.006;2023-02-10T01:06:14;1.15;;;0.10;;
64834;SDS011;51293;59.296;18.006;2023-02-10T01:08:39;2.80;;;0.40;;
64834;SDS011;51293;59.296;18.006;2023-02-10T01:11:06;0.40;;;0.40;;
64834;SDS011;51293;59.296;18.006;2023-02-10T01:13:33;2.13;;;0.32;;
64834;SDS011;51293;59.296;18.006;2023-02-10T01:16:00;0.95;;;0.30;;
64834;SDS011;51293;59.296;18.006;2023-02-10T01:18:29;0.20;;;0.20;;
64834;SDS011;51293;59.296;18.006;2023-02-10T01:20:55;1.63;;;0.30;;
64834;SDS011;51293;59.296;18.006;2023-02-10T01:23:20;2.70;;;0.25;;
64834;SDS011;51293;59.296;18.006;2023-02-10T01:25:45;1.88;;;0.40;;
64834;SDS011;51293;59.296;18.006;2023-02-10T01:28:11;1.35;;;0.50;;
64834;SDS011;51293;59.296;18.006;2023-02-10T01:30:36;2.53;;;0.40;;
64834;SDS011;51293;59.296;18.006;2023-02-10T01:33:02;0.22;;;0.20;;
64834;SDS011;51293;59.296;18.006;2023-02-10T01:35:27;4.35;;;0.40;;
64834;SDS011;51293;59.296;18.006;2023-02-10T01:37:53;1.73;;;0.25;;
64834;SDS011;51293;59.296;18.006;2023-02-10T01:40:19;1.95;;;0.40;;
64834;SDS011;51293;59.296;18.006;2023-02-10T01:42:45;0.20;;;0.20;;
64834;SDS011;51293;59.296;18.006;2023-02-10T01:45:32;1.65;;;0.40;;
64834;SDS011;51293;59.296;18.006;2023-02-10T01:47:58;1.63;;;0.25;;
64834;SDS011;51293;59.296;18.006;2023-02-10T01:50:29;0.35;;;0.13;;
64834;SDS011;51293;59.296;18.006;2023-02-10T01:52:59;0.43;;;0.30;;
64834;SDS011;51293;59.296;18.006;2023-02-10T01:55:26;1.10;;;0.32;;
64834;SDS011;51293;59.296;18.006;2023-02-10T01:57:58;4.72;;;0.30;;
64834;SDS011;51293;59.296;18.006;2023-02-10T02:00:24;0.47;;;0.20;;
64834;SDS011;51293;59.296;18.006;2023-02-10T02:02:50;0.98;;;0.40;;
64834;SDS011;51293;59.296;18.006;2023-02-10T02:05:27;2.88;;;0.40;;
64834;SDS011;51293;59.296;18.006;2023-02-10T02:07:55;3.88;;;0.20;;
64834;SDS011;51293;59.296;18.006;2023-02-10T02:10:26;1.73;;;0.40;;
64834;SDS011;51293;59.296;18.006;2023-02-10T02:16:00;1.08;;;0.38;;
64834;SDS011;51293;59.296;18.006;2023-02-10T02:25:00;0.55;;;0.10;;
64834;SDS011;51293;59.296;18.006;2023-02-10T02:27:34;4.03;;;0.50;;
64834;SDS011;51293;59.296;18.006;2023-02-10T02:33:30;0.38;;;0.30;;
64834;SDS011;51293;59.296;18.006;2023-02-10T02:38:57;2.03;;;0.50;;
64834;SDS011;51293;59.296;18.006;2023-02-10T02:41:24;0.10;;;0.10;;
64834;SDS011;51293;59.296;18.006;2023-02-10T02:43:50;1.85;;;0.55;;
64834;SDS011;51293;59.296;18.006;2023-02-10T02:46:22;0.55;;;0.20;;
64834;SDS011;51293;59.296;18.006;2023-02-10T02:51:20;1.08;;;0.20;;
64834;SDS011;51293;59.296;18.006;2023-02-10T03:02:14;0.47;;;0.30;;
64834;SDS011;51293;59.296;18.006;2023-02-10T03:04:44;0.40;;;0.20;;
64834;SDS011;51293;59.296;18.006;2023-02-10T03:07:10;0.30;;;0.25;;
64834;SDS011;51293;59.296;18.006;2023-02-10T03:09:36;0.30;;;0.30;;
64834;SDS011;51293;59.296;18.006;2023-02-10T03:12:02;4.00;;;0.40;;
64834;SDS011;51293;59.296;18.006;2023-02-10T03:14:28;0.70;;;0.28;;
64834;SDS011;51293;59.296;18.006;2023-02-10T03:16:53;0.15;;;0.15;;
64834;SDS011;51293;59.296;18.006;2023-02-10T03:19:19;0.20;;;0.20;;
64834;SDS011;51293;59.296;18.006;2023-02-10T03:21:44;0.70;;;0.30;;
64834;SDS011;51293;59.296;18.006;2023-02-10T03:24:10;1.30;;;0.22;;
64834;SDS011;51293;59.296;18.006;2023-02-10T03:26:43;0.20;;;0.20;;
64834;SDS011;51293;59.296;18.006;2023-02-10T03:29:09;0.22;;;0.22;;
64834;SDS011;51293;59.296;18.006;2023-02-10T03:31:36;0.30;;;0.30;;
64834;SDS011;51293;59.296;18.006;2023-02-10T03:34:02;0.28;;;0.20;;
64834;SDS011;51293;59.296;18.006;2023-02-10T03:36:27;0.65;;;0.30;;
64834;SDS011;51293;59.296;18.006;2023-02-10T03:38:52;3.50;;;0.40;;
64834;SDS011;51293;59.296;18.006;2023-02-10T03:41:24;0.68;;;0.30;;
64834;SDS011;51293;59.296;18.006;2023-02-10T03:43:49;0.90;;;0.30;;
64834;SDS011;51293;59.296;18.006;2023-02-10T03:46:14;4.53;;;0.30;;
64834;SDS011;51293;59.296;18.006;2023-02-10T03:48:40;1.88;;;0.30;;
64834;SDS011;51293;59.296;18.006;2023-02-10T03:51:06;1.65;;;0.50;;
64834;SDS011;51293;59.296;18.006;2023-02-10T03:53:32;5.78;;;0.60;;
64834;SDS011;51293;59.296;18.006;2023-02-10T03:55:58;2.55;;;0.20;;
64834;SDS011;51293;59.296;18.006;2023-02-10T03:58:24;1.45;;;0.30;;
64834;SDS011;51293;59.296;18.006;2023-02-10T04:00:50;0.25;;;0.25;;
64834;SDS011;51293;59.296;18.006;2023-02-10T04:03:15;4.60;;;0.40;;
64834;SDS011;51293;59.296;18.006;2023-02-10T04:05:41;0.10;;;0.10;;
64834;SDS011;51293;59.296;18.006;2023-02-10T04:08:07;1.55;;;0.45;;
64834;SDS011;51293;59.296;18.006;2023-02-10T04:10:33;3.17;;;0.57;;
64834;SDS011;51293;59.296;18.006;2023-02-10T04:12:58;2.75;;;0.52;;
64834;SDS011;51293;59.296;18.006;2023-02-10T04:15:23;1.63;;;0.38;;
64834;SDS011;51293;59.296;18.006;2023-02-10T04:17:49;2.35;;;0.50;;
64834;SDS011;51293;59.296;18.006;2023-02-10T04:20:14;2.90;;;0.50;;
64834;SDS011;51293;59.296;18.006;2023-02-10T04:22:40;5.13;;;0.40;;
64834;SDS011;51293;59.296;18.006;2023-02-10T04:25:06;1.33;;;0.45;;
64834;SDS011;51293;59.296;18.006;2023-02-10T04:27:31;5.38;;;0.65;;
64834;SDS011;51293;59.296;18.006;2023-02-10T04:29:57;1.98;;;0.57;;
64834;SDS011;51293;59.296;18.006;2023-02-10T04:32:22;2.33;;;0.52;;
64834;SDS011;51293;59.296;18.006;2023-02-10T04:34:48;4.00;;;0.82;;
64834;SDS011;51293;59.296;18.006;2023-02-10T04:37:20;3.33;;;0.68;;
64834;SDS011;51293;59.296;18.006;2023-02-10T04:39:45;2.90;;;0.40;;
64834;SDS011;51293;59.296;18.006;2023-02-10T04:42:10;4.82;;;0.57;;
64834;SDS011;51293;59.296;18.006;2023-02-10T04:44:36;1.88;;;0.50;;
64834;SDS011;51293;59.296;18.006;2023-02-10T04:47:01;9.75;;;0.57;;
64834;SDS011;51293;59.296;18.006;2023-02-10T04:49:26;2.45;;;0.60;;
64834;SDS011;51293;59.296;18.006;2023-02-10T04:51:52;4.93;;;0.47;;
64834;SDS011;51293;59.296;18.006;2023-02-10T04:54:18;3.03;;;0.98;;
64834;SDS011;51293;59.296;18.006;2023-02-10T04:56:44;4.70;;;0.50;;
64834;SDS011;51293;59.296;18.006;2023-02-10T04:59:10;3.47;;;0.77;;
64834;SDS011;51293;59.296;18.006;2023-02-10T05:01:35;7.13;;;0.82;;
64834;SDS011;51293;59.296;18.006;2023-02-10T05:04:00;1.58;;;0.35;;
64834;SDS011;51293;59.296;18.006;2023-02-10T05:06:26;0.50;;;0.35;;
64834;SDS011;51293;59.296;18.006;2023-02-10T05:08:52;4.50;;;0.50;;
64834;SDS011;51293;59.296;18.006;2023-02-10T05:11:17;4.70;;;0.65;;
64834;SDS011;51293;59.296;18.006;2023-02-10T05:13:43;5.15;;;0.68;;
64834;SDS011;51293;59.296;18.006;2023-02-10T05:16:10;4.05;;;0.52;;
64834;SDS011;51293;59.296;18.006;2023-02-10T05:18:37;1.23;;;0.55;;
64834;SDS011;51293;59.296;18.006;2023-02-10T05:21:04;0.88;;;0.35;;
64834;SDS011;51293;59.296;18.006;2023-02-10T05:23:31;6.30;;;0.68;;
64834;SDS011;51293;59.296;18.006;2023-02-10T05:25:57;5.70;;;0.73;;
64834;SDS011;51293;59.296;18.006;2023-02-10T05:28:22;1.15;;;0.30;;
64834;SDS011;51293;59.296;18.006;2023-02-10T05:30:48;4.18;;;0.60;;
64834;SDS011;51293;59.296;18.006;2023-02-10T05:33:13;2.92;;;0.40;;
64834;SDS011;51293;59.296;18.006;2023-02-10T05:35:39;2.58;;;0.55;;
64834;SDS011;51293;59.296;18.006;2023-02-10T05:38:04;15.80;;;1.02;;
64834;SDS011;51293;59.296;18.006;2023-02-10T05:40:30;7.78;;;0.65;;
64834;SDS011;51293;59.296;18.006;2023-02-10T05:42:56;5.80;;;0.80;;
64834;SDS011;51293;59.296;18.006;2023-02-10T05:45:21;5.38;;;0.50;;
64834;SDS011;51293;59.296;18.006;2023-02-10T05:47:47;2.67;;;0.50;;
64834;SDS011;51293;59.296;18.006;2023-02-10T05:50:13;6.80;;;0.55;;
64834;SDS011;51293;59.296;18.006;2023-02-10T05:52:38;2.03;;;0.60;;
64834;SDS011;51293;59.296;18.006;2023-02-10T05:55:04;17.75;;;0.93;;
64834;SDS011;51293;59.296;18.006;2023-02-10T05:57:30;11.25;;;0.90;;
64834;SDS011;51293;59.296;18.006;2023-02-10T05:59:56;0.85;;;0.68;;
64834;SDS011;51293;59.296;18.006;2023-02-10T06:02:21;4.95;;;0.43;;
64834;SDS011;51293;59.296;18.006;2023-02-10T06:04:46;2.85;;;0.50;;
64834;SDS011;51293;59.296;18.006;2023-02-10T06:07:12;6.07;;;0.70;;
64834;SDS011;51293;59.296;18.006;2023-02-10T06:09:37;1.15;;;0.40;;
64834;SDS011;51293;59.296;18.006;2023-02-10T06:12:04;1.38;;;0.40;;
64834;SDS011;51293;59.296;18.006;2023-02-10T06:14:30;0.93;;;0.43;;
64834;SDS011;51293;59.296;18.006;2023-02-10T06:16:56;8.13;;;0.60;;
64834;SDS011;51293;59.296;18.006;2023-02-10T06:19:21;8.68;;;0.45;;
64834;SDS011;51293;59.296;18.006;2023-02-10T06:21:47;1.08;;;0.45;;
64834;SDS011;51293;59.296;18.006;2023-02-10T06:24:12;5.97;;;0.57;;
64834;SDS011;51293;59.296;18.006;2023-02-10T06:26:38;2.33;;;0.52;;
64834;SDS011;51293;59.296;18.006;2023-02-10T06:29:03;2.92;;;0.40;;
64834;SDS011;51293;59.296;18.006;2023-02-10T06:31:28;4.70;;;0.70;;
64834;SDS011;51293;59.296;18.006;2023-02-10T06:33:54;3.22;;;0.40;;
64834;SDS011;51293;59.296;18.006;2023-02-10T06:36:19;2.85;;;0.60;;
64834;SDS011;51293;59.296;18.006;2023-02-10T06:38:45;2.28;;;0.55;;
64834;SDS011;51293;59.296;18.006;2023-02-10T06:41:12;3.55;;;0.60;;
64834;SDS011;51293;59.296;18.006;2023-02-10T06:43:38;11.65;;;0.90;;
64834;SDS011;51293;59.296;18.006;2023-02-10T06:46:04;1.33;;;0.52;;
64834;SDS011;51293;59.296;18.006;2023-02-10T06:48:29;6.82;;;0.65;;
64834;SDS011;51293;59.296;18.006;2023-02-10T06:50:55;1.17;;;0.45;;
64834;SDS011;51293;59.296;18.006;2023-02-10T06:53:20;1.05;;;0.40;;
64834;SDS011;51293;59.296;18.006;2023-02-10T06:55:46;3.03;;;0.60;;
64834;SDS011;51293;59.296;18.006;2023-02-10T06:58:11;2.70;;;0.38;;
64834;SDS011;51293;59.296;18.006;2023-02-10T07:00:37;3.92;;;0.80;;
64834;SDS011;51293;59.296;18.006;2023-02-10T07:03:02;1.70;;;0.50;;
64834;SDS011;51293;59.296;18.006;2023-02-10T07:05:28;3.33;;;0.52;;
64834;SDS011;51293;59.296;18.006;2023-02-10T07:07:53;9.63;;;0.70;;
64834;SDS011;51293;59.296;18.006;2023-02-10T07:10:19;5.55;;;0.50;;
64834;SDS011;51293;59.296;18.006;2023-02-10T07:12:46;2.85;;;0.60;;
64834;SDS011;51293;59.296;18.006;2023-02-10T07:15:14;1.40;;;0.43;;
64834;SDS011;51293;59.296;18.006;2023-02-10T07:17:42;4.30;;;0.57;;
64834;SDS011;51293;59.296;18.006;2023-02-10T07:20:07;2.83;;;0.40;;
64834;SDS011;51293;59.296;18.006;2023-02-10T07:22:33;4.00;;;0.65;;
64834;SDS011;51293;59.296;18.006;2023-02-10T07:24:58;7.40;;;1.17;;
64834;SDS011;51293;59.296;18.006;2023-02-10T07:27:24;2.03;;;0.57;;
64834;SDS011;51293;59.296;18.006;2023-02-10T07:29:49;2.95;;;0.50;;
64834;SDS011;51293;59.296;18.006;2023-02-10T07:32:14;7.85;;;0.68;;
64834;SDS011;51293;59.296;18.006;2023-02-10T07:34:40;2.35;;;0.60;;
64834;SDS011;51293;59.296;18.006;2023-02-10T07:37:06;1.27;;;0.50;;
64834;SDS011;51293;59.296;18.006;2023-02-10T07:39:32;3.25;;;0.55;;
64834;SDS011;51293;59.296;18.006;2023-02-10T07:41:57;8.43;;;0.65;;
64834;SDS011;51293;59.296;18.006;2023-02-10T07:44:23;2.47;;;0.43;;
64834;SDS011;51293;59.296;18.006;2023-02-10T07:46:50;5.65;;;0.35;;
64834;SDS011;51293;59.296;18.006;2023-02-10T07:49:16;2.92;;;0.40;;
64834;SDS011;51293;59.296;18.006;2023-02-10T07:51:41;5.32;;;0.60;;
64834;SDS011;51293;59.296;18.006;2023-02-10T07:54:07;3.55;;;0.43;;
64834;SDS011;51293;59.296;18.006;2023-02-10T07:56:33;5.75;;;1.00;;
64834;SDS011;51293;59.296;18.006;2023-02-10T07:58:59;2.92;;;0.40;;
64834;SDS011;51293;59.296;18.006;2023-02-10T08:01:24;0.77;;;0.50;;
64834;SDS011;51293;59.296;18.006;2023-02-10T08:03:50;0.70;;;0.50;;
64834;SDS011;51293;59.296;18.006;2023-02-10T08:06:22;3.60;;;0.50;;
64834;SDS011;51293;59.296;18.006;2023-02-10T08:08:49;4.60;;;0.82;;
64834;SDS011;51293;59.296;18.006;2023-02-10T08:11:15;4.95;;;0.68;;
64834;SDS011;51293;59.296;18.006;2023-02-10T08:13:41;4.50;;;0.80;;
64834;SDS011;51293;59.296;18.006;2023-02-10T08:16:06;1.08;;;0.63;;
64834;SDS011;51293;59.296;18.006;2023-02-10T08:18:35;2.38;;;0.47;;
64834;SDS011;51293;59.296;18.006;2023-02-10T08:21:01;6.72;;;0.70;;
64834;SDS011;51293;59.296;18.006;2023-02-10T08:23:27;1.38;;;0.50;;
64834;SDS011;51293;59.296;18.006;2023-02-10T08:25:52;4.30;;;0.60;;
64834;SDS011;51293;59.296;18.006;2023-02-10T08:28:18;2.42;;;0.45;;
64834;SDS011;51293;59.296;18.006;2023-02-10T08:30:44;8.30;;;0.82;;
64834;SDS011;51293;59.296;18.006;2023-02-10T08:33:09;1.65;;;0.30;;
64834;SDS011;51293;59.296;18.006;2023-02-10T08:35:35;0.95;;;0.40;;
64834;SDS011;51293;59.296;18.006;2023-02-10T08:38:02;1.33;;;0.85;;
64834;SDS011;51293;59.296;18.006;2023-02-10T08:40:28;6.68;;;0.63;;
64834;SDS011;51293;59.296;18.006;2023-02-10T08:42:53;3.67;;;0.43;;
64834;SDS011;51293;59.296;18.006;2023-02-10T08:45:19;4.88;;;0.57;;
64834;SDS011;51293;59.296;18.006;2023-02-10T08:47:44;2.95;;;0.75;;
64834;SDS011;51293;59.296;18.006;2023-02-10T08:50:10;2.58;;;0.75;;
64834;SDS011;51293;59.296;18.006;2023-02-10T08:52:35;7.18;;;0.98;;
64834;SDS011;51293;59.296;18.006;2023-02-10T08:55:00;4.35;;;0.52;;
64834;SDS011;51293;59.296;18.006;2023-02-10T08:57:26;5.03;;;0.60;;
64834;SDS011;51293;59.296;18.006;2023-02-10T08:59:52;0.77;;;0.45;;
64834;SDS011;51293;59.296;18.006;2023-02-10T09:02:18;2.63;;;0.60;;
64834;SDS011;51293;59.296;18.006;2023-02-10T09:04:43;5.43;;;0.50;;
64834;SDS011;51293;59.296;18.006;2023-02-10T09:07:09;4.20;;;0.60;;
64834;SDS011;51293;59.296;18.006;2023-02-10T09:09:39;5.68;;;0.88;;
64834;SDS011;51293;59.296;18.006;2023-02-10T09:12:05;12.15;;;0.90;;
64834;SDS011;51293;59.296;18.006;2023-02-10T09:14:32;5.35;;;0.52;;
64834;SDS011;51293;59.296;18.006;2023-02-10T09:16:57;4.00;;;0.50;;
64834;SDS011;51293;59.296;18.006;2023-02-10T09:19:23;2.15;;;0.63;;
64834;SDS011;51293;59.296;18.006;2023-02-10T09:21:49;1.05;;;0.68;;
64834;SDS011;51293;59.296;18.006;2023-02-10T09:24:15;5.55;;;0.60;;
64834;SDS011;51293;59.296;18.006;2023-02-10T09:26:41;1.25;;;0.60;;
64834;SDS011;51293;59.296;18.006;2023-02-10T09:29:06;0.52;;;0.38;;
64834;SDS011;51293;59.296;18.006;2023-02-10T09:31:33;4.90;;;0.63;;
64834;SDS011;51293;59.296;18.006;2023-02-10T09:33:59;2.90;;;0.60;;
64834;SDS011;51293;59.296;18.006;2023-02-10T09:36:24;2.53;;;0.60;;
64834;SDS011;51293;59.296;18.006;2023-02-10T09:38:49;1.83;;;0.65;;
64834;SDS011;51293;59.296;18.006;2023-02-10T09:55:32;2.15;;;0.40;;
64834;SDS011;51293;59.296;18.006;2023-02-10T09:58:02;7.60;;;1.08;;
64834;SDS011;51293;59.296;18.006;2023-02-10T10:00:51;4.13;;;0.63;;
64834;SDS011;51293;59.296;18.006;2023-02-10T10:03:25;5.53;;;0.57;;
64834;SDS011;51293;59.296;18.006;2023-02-10T10:06:10;3.72;;;0.60;;
64834;SDS011;51293;59.296;18.006;2023-02-10T10:08:53;1.65;;;0.60;;
64834;SDS011;51293;59.296;18.006;2023-02-10T10:11:29;4.15;;;0.60;;
64834;SDS011;51293;59.296;18.006;2023-02-10T10:14:00;2.28;;;0.85;;
64834;SDS011;51293;59.296;18.006;2023-02-10T10:16:45;1.13;;;0.60;;
64834;SDS011;51293;59.296;18.006;2023-02-10T10:30:46;0.60;;;0.35;;
64834;SDS011;51293;59.296;18.006;2023-02-10T10:33:24;2.20;;;0.77;;
64834;SDS011;51293;59.296;18.006;2023-02-10T10:36:13;6.47;;;0.50;;
64834;SDS011;51293;59.296;18.006;2023-02-10T10:38:53;3.58;;;0.68;;
64834;SDS011;51293;59.296;18.006;2023-02-10T10:41:23;2.40;;;0.65;;
64834;SDS011;51293;59.296;18.006;2023-02-10T10:43:54;6.95;;;0.80;;
64834;SDS011;51293;59.296;18.006;2023-02-10T10:46:28;3.85;;;0.68;;
64834;SDS011;51293;59.296;18.006;2023-02-10T10:48:56;3.92;;;0.52;;
64834;SDS011;51293;59.296;18.006;2023-02-10T10:51:22;3.22;;;1.13;;
64834;SDS011;51293;59.296;18.006;2023-02-10T10:53:51;2.95;;;0.80;;
64834;SDS011;51293;59.296;18.006;2023-02-10T10:59:18;1.02;;;0.40;;
64834;SDS011;51293;59.296;18.006;2023-02-10T11:01:50;4.20;;;0.80;;
64834;SDS011;51293;59.296;18.006;2023-02-10T11:04:19;4.97;;;0.73;;
64834;SDS011;51293;59.296;18.006;2023-02-10T11:06:48;5.70;;;0.43;;
64834;SDS011;51293;59.296;18.006;2023-02-10T11:09:26;1.40;;;0.50;;
64834;SDS011;51293;59.296;18.006;2023-02-10T11:12:00;2.08;;;0.35;;
64834;SDS011;51293;59.296;18.006;2023-02-10T11:14:28;2.08;;;0.50;;
64834;SDS011;51293;59.296;18.006;2023-02-10T11:16:58;1.95;;;0.60;;
64834;SDS011;51293;59.296;18.006;2023-02-10T11:19:30;4.93;;;0.85;;
64834;SDS011;51293;59.296;18.006;2023-02-10T11:21:58;7.22;;;0.77;;
64834;SDS011;51293;59.296;18.006;2023-02-10T11:24:26;1.67;;;0.50;;
64834;SDS011;51293;59.296;18.006;2023-02-10T11:27:01;0.60;;;0.50;;
64834;SDS011;51293;59.296;18.006;2023-02-10T11:29:29;5.65;;;0.82;;
64834;SDS011;51293;59.296;18.006;2023-02-10T11:31:57;3.40;;;0.45;;
64834;SDS011;51293;59.296;18.006;2023-02-10T11:36:51;2.17;;;0.63;;
64834;SDS011;51293;59.296;18.006;2023-02-10T11:39:23;2.70;;;0.68;;
64834;SDS011;51293;59.296;18.006;2023-02-10T11:41:53;5.97;;;0.70;;
64834;SDS011;51293;59.296;18.006;2023-02-10T11:44:27;2.47;;;0.90;;
64834;SDS011;51293;59.296;18.006;2023-02-10T11:47:00;3.70;;;0.75;;
64834;SDS011;51293;59.296;18.006;2023-02-10T11:49:33;2.05;;;0.82;;
64834;SDS011;51293;59.296;18.006;2023-02-10T11:52:02;6.05;;;0.65;;
64834;SDS011;51293;59.296;18.006;2023-02-10T11:54:29;3.15;;;0.73;;
64834;SDS011;51293;59.296;18.006;2023-02-10T11:57:04;4.45;;;0.90;;
64834;SDS011;51293;59.296;18.006;2023-02-10T12:00:10;4.03;;;0.68;;
64834;SDS011;51293;59.296;18.006;2023-02-10T12:02:47;10.85;;;1.02;;
64834;SDS011;51293;59.296;18.006;2023-02-10T12:10:47;3.60;;;0.52;;
64834;SDS011;51293;59.296;18.006;2023-02-10T12:29:51;4.68;;;0.73;;
64834;SDS011;51293;59.296;18.006;2023-02-10T12:54:55;2.58;;;0.80;;
64834;SDS011;51293;59.296;18.006;2023-02-10T12:57:49;6.30;;;0.73;;
64834;SDS011;51293;59.296;18.006;2023-02-10T13:00:29;2.70;;;0.52;;
64834;SDS011;51293;59.296;18.006;2023-02-10T13:03:06;5.75;;;0.90;;
64834;SDS011;51293;59.296;18.006;2023-02-10T13:08:43;5.20;;;0.80;;
64834;SDS011;51293;59.296;18.006;2023-02-10T13:11:16;2.20;;;0.73;;
64834;SDS011;51293;59.296;18.006;2023-02-10T13:13:51;3.60;;;0.60;;
64834;SDS011;51293;59.296;18.006;2023-02-10T13:16:20;3.25;;;1.00;;
64834;SDS011;51293;59.296;18.006;2023-02-10T13:18:56;5.78;;;0.80;;
64834;SDS011;51293;59.296;18.006;2023-02-10T13:21:51;5.25;;;1.02;;
64834;SDS011;51293;59.296;18.006;2023-02-10T13:35:04;2.03;;;0.60;;
64834;SDS011;51293;59.296;18.006;2023-02-10T13:37:39;4.47;;;0.77;;
64834;SDS011;51293;59.296;18.006;2023-02-10T13:40:22;6.53;;;0.80;;
64834;SDS011;51293;59.296;18.006;2023-02-10T13:45:27;3.63;;;0.75;;
64834;SDS011;51293;59.296;18.006;2023-02-10T13:47:54;3.55;;;0.70;;
64834;SDS011;51293;59.296;18.006;2023-02-10T13:50:26;4.93;;;0.70;;
64834;SDS011;51293;59.296;18.006;2023-02-10T13:53:02;11.15;;;1.75;;
64834;SDS011;51293;59.296;18.006;2023-02-10T13:58:14;6.28;;;0.80;;
64834;SDS011;51293;59.296;18.006;2023-02-10T14:00:49;10.02;;;1.02;;
64834;SDS011;51293;59.296;18.006;2023-02-10T14:05:52;3.13;;;0.77;;
64834;SDS011;51293;59.296;18.006;2023-02-10T14:08:27;5.03;;;0.90;;
64834;SDS011;51293;59.296;18.006;2023-02-10T14:11:10;9.65;;;0.85;;
64834;SDS011;51293;59.296;18.006;2023-02-10T14:14:01;4.18;;;0.98;;
64834;SDS011;51293;59.296;18.006;2023-02-10T14:16:48;8.98;;;1.13;;
64834;SDS011;51293;59.296;18.006;2023-02-10T14:19:23;7.82;;;0.80;;
64834;SDS011;51293;59.296;18.006;2023-02-10T14:21:54;9.65;;;0.80;;
64834;SDS011;51293;59.296;18.006;2023-02-10T14:24:23;2.60;;;0.85;;
64834;SDS011;51293;59.296;18.006;2023-02-10T14:27:00;2.92;;;0.70;;
64834;SDS011;51293;59.296;18.006;2023-02-10T14:29:28;7.90;;;1.15;;
64834;SDS011;51293;59.296;18.006;2023-02-10T14:31:57;3.47;;;0.98;;
64834;SDS011;51293;59.296;18.006;2023-02-10T14:36:53;7.15;;;0.80;;
64834;SDS011;51293;59.296;18.006;2023-02-10T14:39:21;6.53;;;0.70;;
64834;SDS011;51293;59.296;18.006;2023-02-10T14:41:48;4.93;;;1.10;;
64834;SDS011;51293;59.296;18.006;2023-02-10T14:44:26;5.70;;;0.80;;
64834;SDS011;51293;59.296;18.006;2023-02-10T14:46:58;6.95;;;1.20;;
64834;SDS011;51293;59.296;18.006;2023-02-10T14:49:23;6.65;;;1.10;;
64834;SDS011;51293;59.296;18.006;2023-02-10T14:51:49;3.38;;;1.00;;
64834;SDS011;51293;59.296;18.006;2023-02-10T14:54:17;8.30;;;1.05;;
64834;SDS011;51293;59.296;18.006;2023-02-10T14:56:51;8.30;;;1.10;;
64834;SDS011;51293;59.296;18.006;2023-02-10T14:59:33;5.22;;;0.90;;
64834;SDS011;51293;59.296;18.006;2023-02-10T15:01:59;8.77;;;1.00;;
64834;SDS011;51293;59.296;18.006;2023-02-10T15:04:28;4.45;;;1.00;;
64834;SDS011;51293;59.296;18.006;2023-02-10T15:06:55;2.35;;;0.77;;
64834;SDS011;51293;59.296;18.006;2023-02-10T15:09:24;5.00;;;1.08;;
64834;SDS011;51293;59.296;18.006;2023-02-10T15:12:03;11.35;;;1.23;;
64834;SDS011;51293;59.296;18.006;2023-02-10T15:17:08;9.80;;;1.77;;
64834;SDS011;51293;59.296;18.006;2023-02-10T15:19:49;7.82;;;1.25;;
64834;SDS011;51293;59.296;18.006;2023-02-10T15:27:48;2.13;;;0.77;;
64834;SDS011;51293;59.296;18.006;2023-02-10T15:30:20;4.13;;;0.90;;
64834;SDS011;51293;59.296;18.006;2023-02-10T15:32:48;9.32;;;1.02;;
64834;SDS011;51293;59.296;18.006;2023-02-10T15:35:16;5.72;;;1.08;;
64834;SDS011;51293;59.296;18.006;2023-02-10T15:37:41;12.13;;;1.27;;
64834;SDS011;51293;59.296;18.006;2023-02-10T15:40:16;15.07;;;1.30;;
64834;SDS011;51293;59.296;18.006;2023-02-10T15:42:54;8.98;;;1.27;;
64834;SDS011;51293;59.296;18.006;2023-02-10T15:45:25;9.85;;;1.30;;
64834;SDS011;51293;59.296;18.006;2023-02-10T15:47:58;10.30;;;1.63;;
64834;SDS011;51293;59.296;18.006;2023-02-10T15:50:30;10.73;;;1.17;;
64834;SDS011;51293;59.296;18.006;2023-02-10T15:52:57;8.98;;;1.35;;
64834;SDS011;51293;59.296;18.006;2023-02-10T15:57:57;3.55;;;1.00;;
64834;SDS011;51293;59.296;18.006;2023-02-10T16:00:27;6.03;;;0.93;;
64834;SDS011;51293;59.296;18.006;2023-02-10T16:02:55;7.88;;;1.25;;
64834;SDS011;51293;59.296;18.006;2023-02-10T16:05:21;7.68;;;1.30;;
64834;SDS011;51293;59.296;18.006;2023-02-10T16:07:48;12.02;;;1.50;;
64834;SDS011;51293;59.296;18.006;2023-02-10T16:10:20;9.43;;;1.50;;
64834;SDS011;51293;59.296;18.006;2023-02-10T16:12:48;4.47;;;0.73;;
64834;SDS011;51293;59.296;18.006;2023-02-10T16:15:15;6.75;;;1.35;;
64834;SDS011;51293;59.296;18.006;2023-02-10T16:17:43;8.07;;;1.15;;
64834;SDS011;51293;59.296;18.006;2023-02-10T16:20:15;7.50;;;1.13;;
64834;SDS011;51293;59.296;18.006;2023-02-10T16:22:51;7.45;;;1.33;;
64834;SDS011;51293;59.296;18.006;2023-02-10T16:25:18;6.63;;;1.45;;
64834;SDS011;51293;59.296;18.006;2023-02-10T16:27:44;5.03;;;1.10;;
64834;SDS011;51293;59.296;18.006;2023-02-10T16:30:14;5.47;;;1.27;;
64834;SDS011;51293;59.296;18.006;2023-02-10T16:32:41;6.72;;;1.15;;
64834;SDS011;51293;59.296;18.006;2023-02-10T16:35:07;5.28;;;0.95;;
64834;SDS011;51293;59.296;18.006;2023-02-10T16:37:32;5.63;;;1.00;;
64834;SDS011;51293;59.296;18.006;2023-02-10T16:39:58;9.25;;;1.20;;
64834;SDS011;51293;59.296;18.006;2023-02-10T16:42:23;3.70;;;1.05;;
64834;SDS011;51293;59.296;18.006;2023-02-10T16:44:49;12.43;;;1.60;;
64834;SDS011;51293;59.296;18.006;2023-02-10T16:47:18;9.75;;;1.30;;
64834;SDS011;51293;59.296;18.006;2023-02-10T16:49:45;9.45;;;1.48;;
64834;SDS011;51293;59.296;18.006;2023-02-10T16:52:11;3.25;;;1.10;;
64834;SDS011;51293;59.296;18.006;2023-02-10T16:54:36;13.18;;;1.35;;
64834;SDS011;51293;59.296;18.006;2023-02-10T16:57:02;18.85;;;2.00;;